sensor_id;sensor_type;location;lat;lon;timestamp;temperature;humidity
41756;DHT22;27435;48.480;9.258;2023-07-31T00:00:08;14.40;99.00
41756;DHT22;27435;48.480;9.258;2023-07-31T00:02:34;14.40;99.00
41756;DHT22;27435;48.480;9.258;2023-07-31T00:05:01;14.40;99.00
41756;DHT22;27435;48.480;9.258;2023-07-31T00:07:26;14.30;99.00
41756;DHT22;27435;48.480;9.258;2023-07-31T00:09:52;14.30;99.00
41756;DHT22;27435;48.480;9.258;2023-07-31T00:12:19;14.30;99.00
41756;DHT22;27435;48.480;9.258;2023-07-31T00:14:45;14.30;99.00
41756;DHT22;27435;48.480;9.258;2023-07-31T00:17:11;14.30;99.00
41756;DHT22;27435;48.480;9.258;2023-07-31T00:19:37;14.30;99.00
41756;DHT22;27435;48.480;9.258;2023-07-31T00:22:03;14.30;99.00
41756;DHT22;27435;48.480;9.258;2023-07-31T00:24:28;14.30;99.00
41756;DHT22;27435;48.480;9.258;2023-07-31T00:26:54;14.30;99.00
41756;DHT22;27435;48.480;9.258;2023-07-31T00:29:19;14.20;99.00
41756;DHT22;27435;48.480;9.258;2023-07-31T00:31:45;14.30;99.00
41756;DHT22;27435;48.480;9.258;2023-07-31T00:34:11;14.40;99.00
41756;DHT22;27435;48.480;9.258;2023-07-31T00:36:36;14.30;99.00
41756;DHT22;27435;48.480;9.258;2023-07-31T00:39:02;14.40;99.00
41756;DHT22;27435;48.480;9.258;2023-07-31T00:41:27;14.30;99.00
41756;DHT22;27435;48.480;9.258;2023-07-31T00:43:53;14.30;99.00
41756;DHT22;27435;48.480;9.258;2023-07-31T00:46:19;14.30;99.00
41756;DHT22;27435;48.480;9.258;2023-07-31T00:48:45;14.20;99.00
41756;DHT22;27435;48.480;9.258;2023-07-31T00:51:11;14.30;99.00
41756;DHT22;27435;48.480;9.258;2023-07-31T00:53:37;14.30;99.00
41756;DHT22;27435;48.480;9.258;2023-07-31T00:56:03;14.40;99.00
41756;DHT22;27435;48.480;9.258;2023-07-31T00:58:29;14.50;99.00
41756;DHT22;27435;48.480;9.258;2023-07-31T01:00:55;14.50;99.00
41756;DHT22;27435;48.480;9.258;2023-07-31T01:03:21;14.40;99.00
41756;DHT22;27435;48.480;9.258;2023-07-31T01:11:16;14.40;99.00
41756;DHT22;27435;48.480;9.258;2023-07-31T01:13:44;14.40;99.00
41756;DHT22;27435;48.480;9.258;2023-07-31T01:16:11;14.30;99.00
41756;DHT22;27435;48.480;9.258;2023-07-31T01:18:36;14.30;99.00
41756;DHT22;27435;48.480;9.258;2023-07-31T01:27:13;14.30;99.00
41756;DHT22;27435;48.480;9.258;2023-07-31T01:32:28;14.30;99.00
41756;DHT22;27435;48.480;9.258;2023-07-31T01:34:55;14.20;99.00
41756;DHT22;27435;48.480;9.258;2023-07-31T01:37:22;14.30;99.00
41756;DHT22;27435;48.480;9.258;2023-07-31T01:39:52;14.30;99.00
41756;DHT22;27435;48.480;9.258;2023-07-31T01:42:18;14.40;99.00
41756;DHT22;27435;48.480;9.258;2023-07-31T01:44:44;14.30;99.00
41756;DHT22;27435;48.480;9.258;2023-07-31T01:47:10;14.30;99.00
41756;DHT22;27435;48.480;9.258;2023-07-31T01:49:35;14.40;99.00
41756;DHT22;27435;48.480;9.258;2023-07-31T01:52:01;14.40;99.00
41756;DHT22;27435;48.480;9.258;2023-07-31T01:54:26;14.50;99.00
41756;DHT22;27435;48.480;9.258;2023-07-31T01:56:52;14.50;99.00
41756;DHT22;27435;48.480;9.258;2023-07-31T01:59:18;14.40;99.00
41756;DHT22;27435;48.480;9.258;2023-07-31T02:01:43;14.40;99.00
41756;DHT22;27435;48.480;9.258;2023-07-31T02:04:09;14.40;99.00
41756;DHT22;27435;48.480;9.258;2023-07-31T02:06:34;14.40;99.00
41756;DHT22;27435;48.480;9.258;2023-07-31T02:09:00;14.20;99.00
41756;DHT22;27435;48.480;9.258;2023-07-31T02:11:26;14.20;99.00
41756;DHT22;27435;48.480;9.258;2023-07-31T02:13:51;14.20;99.00
41756;DHT22;27435;48.480;9.258;2023-07-31T02:16:17;14.20;99.00
41756;DHT22;27435;48.480;9.258;2023-07-31T02:18:42;14.10;99.00
41756;DHT22;27435;48.480;9.258;2023-07-31T02:21:08;14.10;99.00
41756;DHT22;27435;48.480;9.258;2023-07-31T02:23:34;14.10;99.00
41756;DHT22;27435;48.480;9.258;2023-07-31T02:25:59;14.00;99.00
41756;DHT22;27435;48.480;9.258;2023-07-31T02:28:25;14.20;99.00
41756;DHT22;27435;48.480;9.258;2023-07-31T02:30:51;14.30;99.00
41756;DHT22;27435;48.480;9.258;2023-07-31T02:33:17;14.20;99.00
41756;DHT22;27435;48.480;9.258;2023-07-31T02:35:43;14.30;99.00
41756;DHT22;27435;48.480;9.258;2023-07-31T02:38:08;14.40;99.00
41756;DHT22;27435;48.480;9.258;2023-07-31T02:40:34;14.30;99.00
41756;DHT22;27435;48.480;9.258;2023-07-31T02:43:00;14.30;99.00
41756;DHT22;27435;48.480;9.258;2023-07-31T02:45:25;14.40;99.00
41756;DHT22;27435;48.480;9.258;2023-07-31T02:47:51;14.40;99.00
41756;DHT22;27435;48.480;9.258;2023-07-31T02:50:16;14.40;98.90
41756;DHT22;27435;48.480;9.258;2023-07-31T02:52:42;14.40;98.50
41756;DHT22;27435;48.480;9.258;2023-07-31T02:55:08;14.30;98.60
41756;DHT22;27435;48.480;9.258;2023-07-31T02:57:33;14.30;99.00
41756;DHT22;27435;48.480;9.258;2023-07-31T02:59:59;14.30;99.00
41756;DHT22;27435;48.480;9.258;2023-07-31T03:02:24;14.30;98.50
41756;DHT22;27435;48.480;9.258;2023-07-31T03:04:50;14.50;98.60
41756;DHT22;27435;48.480;9.258;2023-07-31T03:07:16;14.60;97.40
41756;DHT22;27435;48.480;9.258;2023-07-31T03:09:41;14.60;97.70
41756;DHT22;27435;48.480;9.258;2023-07-31T03:12:07;14.70;97.10
41756;DHT22;27435;48.480;9.258;2023-07-31T03:14:33;14.60;97.30
41756;DHT22;27435;48.480;9.258;2023-07-31T03:16:59;14.40;98.60
41756;DHT22;27435;48.480;9.258;2023-07-31T03:19:25;14.40;98.30
41756;DHT22;27435;48.480;9.258;2023-07-31T03:21:51;14.40;98.60
41756;DHT22;27435;48.480;9.258;2023-07-31T03:24:16;14.50;98.40
41756;DHT22;27435;48.480;9.258;2023-07-31T03:26:42;14.50;98.30
41756;DHT22;27435;48.480;9.258;2023-07-31T03:29:08;14.40;98.80
41756;DHT22;27435;48.480;9.258;2023-07-31T03:31:34;14.20;99.00
41756;DHT22;27435;48.480;9.258;2023-07-31T03:33:59;14.10;99.00
41756;DHT22;27435;48.480;9.258;2023-07-31T03:36:25;14.00;99.00
41756;DHT22;27435;48.480;9.258;2023-07-31T03:38:54;13.90;99.00
41756;DHT22;27435;48.480;9.258;2023-07-31T03:41:19;13.80;99.00
41756;DHT22;27435;48.480;9.258;2023-07-31T03:43:49;13.70;99.00
41756;DHT22;27435;48.480;9.258;2023-07-31T03:46:16;13.70;99.00
41756;DHT22;27435;48.480;9.258;2023-07-31T03:48:42;13.70;99.00
41756;DHT22;27435;48.480;9.258;2023-07-31T03:51:07;13.80;99.00
41756;DHT22;27435;48.480;9.258;2023-07-31T03:53:33;13.70;99.00
41756;DHT22;27435;48.480;9.258;2023-07-31T03:55:59;13.70;99.00
41756;DHT22;27435;48.480;9.258;2023-07-31T03:58:24;13.80;99.00
41756;DHT22;27435;48.480;9.258;2023-07-31T04:00:50;13.70;99.00
41756;DHT22;27435;48.480;9.258;2023-07-31T04:03:15;13.90;99.00
41756;DHT22;27435;48.480;9.258;2023-07-31T04:05:41;14.10;99.00
41756;DHT22;27435;48.480;9.258;2023-07-31T04:08:07;14.20;99.00
41756;DHT22;27435;48.480;9.258;2023-07-31T04:10:32;14.30;99.00
41756;DHT22;27435;48.480;9.258;2023-07-31T04:12:59;14.00;99.00
41756;DHT22;27435;48.480;9.258;2023-07-31T04:15:25;13.80;99.00
41756;DHT22;27435;48.480;9.258;2023-07-31T04:17:51;13.60;99.00
41756;DHT22;27435;48.480;9.258;2023-07-31T04:20:17;13.70;99.00
41756;DHT22;27435;48.480;9.258;2023-07-31T04:22:43;14.00;99.00
41756;DHT22;27435;48.480;9.258;2023-07-31T04:25:08;14.10;99.00
41756;DHT22;27435;48.480;9.258;2023-07-31T04:27:34;14.20;99.00
41756;DHT22;27435;48.480;9.258;2023-07-31T04:29:59;14.10;99.00
41756;DHT22;27435;48.480;9.258;2023-07-31T04:32:25;14.10;99.00
41756;DHT22;27435;48.480;9.258;2023-07-31T04:34:51;14.30;99.00
41756;DHT22;27435;48.480;9.258;2023-07-31T04:37:16;14.30;99.00
41756;DHT22;27435;48.480;9.258;2023-07-31T04:39:42;14.10;99.00
41756;DHT22;27435;48.480;9.258;2023-07-31T04:42:08;14.00;99.00
41756;DHT22;27435;48.480;9.258;2023-07-31T04:44:33;14.10;99.00
41756;DHT22;27435;48.480;9.258;2023-07-31T04:46:59;14.20;99.00
41756;DHT22;27435;48.480;9.258;2023-07-31T04:49:25;14.30;99.00
41756;DHT22;27435;48.480;9.258;2023-07-31T04:51:50;14.10;99.00
41756;DHT22;27435;48.480;9.258;2023-07-31T04:54:16;14.10;99.00
41756;DHT22;27435;48.480;9.258;2023-07-31T04:56:41;14.40;99.00
41756;DHT22;27435;48.480;9.258;2023-07-31T04:59:07;14.40;99.00
41756;DHT22;27435;48.480;9.258;2023-07-31T05:01:33;14.60;99.00
41756;DHT22;27435;48.480;9.258;2023-07-31T05:03:58;14.50;99.00
41756;DHT22;27435;48.480;9.258;2023-07-31T05:06:24;14.50;99.00
41756;DHT22;27435;48.480;9.258;2023-07-31T05:08:49;14.50;99.00
41756;DHT22;27435;48.480;9.258;2023-07-31T05:11:15;14.50;99.00
41756;DHT22;27435;48.480;9.258;2023-07-31T05:13:41;14.70;99.00
41756;DHT22;27435;48.480;9.258;2023-07-31T05:16:06;14.80;99.00
41756;DHT22;27435;48.480;9.258;2023-07-31T05:18:32;14.90;99.00
41756;DHT22;27435;48.480;9.258;2023-07-31T05:20:58;14.90;99.00
41756;DHT22;27435;48.480;9.258;2023-07-31T05:23:23;15.10;99.00
41756;DHT22;27435;48.480;9.258;2023-07-31T05:25:49;15.10;99.00
41756;DHT22;27435;48.480;9.258;2023-07-31T05:28:14;15.20;99.00
41756;DHT22;27435;48.480;9.258;2023-07-31T05:30:40;15.30;99.00
41756;DHT22;27435;48.480;9.258;2023-07-31T05:33:06;15.60;99.00
41756;DHT22;27435;48.480;9.258;2023-07-31T05:35:31;15.50;99.00
41756;DHT22;27435;48.480;9.258;2023-07-31T05:37:57;15.70;99.00
41756;DHT22;27435;48.480;9.258;2023-07-31T05:40:23;15.70;99.00
41756;DHT22;27435;48.480;9.258;2023-07-31T05:42:48;15.60;99.00
41756;DHT22;27435;48.480;9.258;2023-07-31T05:45:14;15.60;99.00
41756;DHT22;27435;48.480;9.258;2023-07-31T05:47:40;15.70;99.00
41756;DHT22;27435;48.480;9.258;2023-07-31T05:50:06;16.00;99.00
41756;DHT22;27435;48.480;9.258;2023-07-31T05:52:32;16.40;98.60
41756;DHT22;27435;48.480;9.258;2023-07-31T05:54:57;16.80;96.80
41756;DHT22;27435;48.480;9.258;2023-07-31T05:57:23;16.90;97.10
41756;DHT22;27435;48.480;9.258;2023-07-31T05:59:48;17.00;96.40
41756;DHT22;27435;48.480;9.258;2023-07-31T06:02:14;17.00;96.30
41756;DHT22;27435;48.480;9.258;2023-07-31T06:04:40;16.80;97.60
41756;DHT22;27435;48.480;9.258;2023-07-31T06:07:05;16.80;97.40
41756;DHT22;27435;48.480;9.258;2023-07-31T06:09:31;16.90;97.70
41756;DHT22;27435;48.480;9.258;2023-07-31T06:11:57;17.30;97.00
41756;DHT22;27435;48.480;9.258;2023-07-31T06:14:22;17.60;96.30
41756;DHT22;27435;48.480;9.258;2023-07-31T06:16:48;17.60;94.30
41756;DHT22;27435;48.480;9.258;2023-07-31T06:19:14;17.50;94.40
41756;DHT22;27435;48.480;9.258;2023-07-31T06:21:39;17.60;94.40
41756;DHT22;27435;48.480;9.258;2023-07-31T06:24:07;17.50;94.80
41756;DHT22;27435;48.480;9.258;2023-07-31T06:26:33;17.50;94.80
41756;DHT22;27435;48.480;9.258;2023-07-31T06:28:58;17.60;94.10
41756;DHT22;27435;48.480;9.258;2023-07-31T06:31:24;17.70;93.70
41756;DHT22;27435;48.480;9.258;2023-07-31T06:33:51;18.00;91.50
41756;DHT22;27435;48.480;9.258;2023-07-31T06:36:17;18.30;90.30
41756;DHT22;27435;48.480;9.258;2023-07-31T06:38:43;18.50;88.30
41756;DHT22;27435;48.480;9.258;2023-07-31T06:41:08;18.50;86.90
41756;DHT22;27435;48.480;9.258;2023-07-31T06:43:36;18.70;86.50
41756;DHT22;27435;48.480;9.258;2023-07-31T06:46:09;18.90;86.50
41756;DHT22;27435;48.480;9.258;2023-07-31T06:48:35;19.00;84.80
41756;DHT22;27435;48.480;9.258;2023-07-31T06:51:03;19.30;84.40
41756;DHT22;27435;48.480;9.258;2023-07-31T06:53:29;19.60;82.00
41756;DHT22;27435;48.480;9.258;2023-07-31T06:55:55;20.10;81.50
41756;DHT22;27435;48.480;9.258;2023-07-31T06:58:21;20.30;80.00
41756;DHT22;27435;48.480;9.258;2023-07-31T07:00:46;20.60;79.90
41756;DHT22;27435;48.480;9.258;2023-07-31T07:03:14;20.80;79.10
41756;DHT22;27435;48.480;9.258;2023-07-31T07:05:40;20.80;76.50
41756;DHT22;27435;48.480;9.258;2023-07-31T07:08:08;21.40;75.60
41756;DHT22;27435;48.480;9.258;2023-07-31T07:10:34;22.00;73.90
41756;DHT22;27435;48.480;9.258;2023-07-31T07:12:59;21.60;74.60
41756;DHT22;27435;48.480;9.258;2023-07-31T07:15:25;21.30;76.60
41756;DHT22;27435;48.480;9.258;2023-07-31T07:17:51;21.20;76.10
41756;DHT22;27435;48.480;9.258;2023-07-31T07:20:16;20.90;76.80
41756;DHT22;27435;48.480;9.258;2023-07-31T07:22:42;20.70;76.30
41756;DHT22;27435;48.480;9.258;2023-07-31T07:25:11;20.70;76.40
41756;DHT22;27435;48.480;9.258;2023-07-31T07:27:38;20.60;76.90
41756;DHT22;27435;48.480;9.258;2023-07-31T07:30:06;20.50;77.60
41756;DHT22;27435;48.480;9.258;2023-07-31T07:32:32;20.80;76.80
41756;DHT22;27435;48.480;9.258;2023-07-31T07:34:58;20.90;75.80
41756;DHT22;27435;48.480;9.258;2023-07-31T07:37:24;20.70;77.10
41756;DHT22;27435;48.480;9.258;2023-07-31T07:39:50;20.90;76.30
41756;DHT22;27435;48.480;9.258;2023-07-31T07:42:17;20.80;76.20
41756;DHT22;27435;48.480;9.258;2023-07-31T07:44:43;20.90;76.70
41756;DHT22;27435;48.480;9.258;2023-07-31T07:47:23;21.00;76.10
41756;DHT22;27435;48.480;9.258;2023-07-31T07:49:58;21.40;75.40
41756;DHT22;27435;48.480;9.258;2023-07-31T07:52:24;21.30;74.70
41756;DHT22;27435;48.480;9.258;2023-07-31T07:54:49;21.00;75.40
41756;DHT22;27435;48.480;9.258;2023-07-31T07:57:15;20.90;76.20
41756;DHT22;27435;48.480;9.258;2023-07-31T07:59:42;20.80;75.50
41756;DHT22;27435;48.480;9.258;2023-07-31T08:02:07;20.80;75.90
41756;DHT22;27435;48.480;9.258;2023-07-31T08:04:33;20.40;76.50
41756;DHT22;27435;48.480;9.258;2023-07-31T08:06:58;20.50;76.50
41756;DHT22;27435;48.480;9.258;2023-07-31T08:09:24;20.70;76.00
41756;DHT22;27435;48.480;9.258;2023-07-31T08:11:50;20.60;75.50
41756;DHT22;27435;48.480;9.258;2023-07-31T08:14:15;20.40;76.90
41756;DHT22;27435;48.480;9.258;2023-07-31T08:16:41;20.20;77.10
41756;DHT22;27435;48.480;9.258;2023-07-31T08:19:07;20.20;76.40
41756;DHT22;27435;48.480;9.258;2023-07-31T08:21:32;20.50;75.70
41756;DHT22;27435;48.480;9.258;2023-07-31T08:23:58;20.90;75.00
41756;DHT22;27435;48.480;9.258;2023-07-31T08:26:23;20.70;73.70
41756;DHT22;27435;48.480;9.258;2023-07-31T08:28:49;20.50;74.90
41756;DHT22;27435;48.480;9.258;2023-07-31T08:31:15;20.30;74.50
41756;DHT22;27435;48.480;9.258;2023-07-31T08:33:41;20.50;74.40
41756;DHT22;27435;48.480;9.258;2023-07-31T08:36:06;20.70;73.40
41756;DHT22;27435;48.480;9.258;2023-07-31T08:38:32;21.00;72.80
41756;DHT22;27435;48.480;9.258;2023-07-31T08:40:58;21.30;72.20
41756;DHT22;27435;48.480;9.258;2023-07-31T08:43:27;21.60;71.70
41756;DHT22;27435;48.480;9.258;2023-07-31T08:45:53;21.80;71.80
41756;DHT22;27435;48.480;9.258;2023-07-31T08:48:23;21.80;69.10
41756;DHT22;27435;48.480;9.258;2023-07-31T08:50:50;21.70;70.60
41756;DHT22;27435;48.480;9.258;2023-07-31T08:53:16;22.00;69.50
41756;DHT22;27435;48.480;9.258;2023-07-31T08:55:43;22.30;69.30
41756;DHT22;27435;48.480;9.258;2023-07-31T08:58:10;22.40;68.20
41756;DHT22;27435;48.480;9.258;2023-07-31T09:00:38;22.50;68.80
41756;DHT22;27435;48.480;9.258;2023-07-31T09:03:11;22.40;67.60
41756;DHT22;27435;48.480;9.258;2023-07-31T09:05:39;22.40;68.20
41756;DHT22;27435;48.480;9.258;2023-07-31T09:08:09;22.30;68.30
41756;DHT22;27435;48.480;9.258;2023-07-31T09:10:35;22.20;68.90
41756;DHT22;27435;48.480;9.258;2023-07-31T09:13:06;21.50;69.90
41756;DHT22;27435;48.480;9.258;2023-07-31T09:15:32;21.60;69.80
41756;DHT22;27435;48.480;9.258;2023-07-31T09:18:02;22.20;69.10
41756;DHT22;27435;48.480;9.258;2023-07-31T09:20:28;22.20;68.90
41756;DHT22;27435;48.480;9.258;2023-07-31T09:22:55;21.70;70.10
41756;DHT22;27435;48.480;9.258;2023-07-31T09:25:25;21.80;70.40
41756;DHT22;27435;48.480;9.258;2023-07-31T09:28:07;22.30;70.00
41756;DHT22;27435;48.480;9.258;2023-07-31T09:30:50;22.30;68.60
41756;DHT22;27435;48.480;9.258;2023-07-31T09:33:16;22.80;67.60
41756;DHT22;27435;48.480;9.258;2023-07-31T09:35:51;23.10;66.60
41756;DHT22;27435;48.480;9.258;2023-07-31T09:38:17;23.60;66.00
41756;DHT22;27435;48.480;9.258;2023-07-31T09:40:45;23.30;65.50
41756;DHT22;27435;48.480;9.258;2023-07-31T09:43:22;23.00;66.70
41756;DHT22;27435;48.480;9.258;2023-07-31T09:45:55;23.00;67.20
41756;DHT22;27435;48.480;9.258;2023-07-31T09:48:23;22.70;67.20
41756;DHT22;27435;48.480;9.258;2023-07-31T09:50:52;22.60;68.40
41756;DHT22;27435;48.480;9.258;2023-07-31T09:53:19;22.90;66.90
41756;DHT22;27435;48.480;9.258;2023-07-31T09:55:44;22.80;67.40
41756;DHT22;27435;48.480;9.258;2023-07-31T09:58:11;22.60;67.30
41756;DHT22;27435;48.480;9.258;2023-07-31T10:00:38;22.40;68.70
41756;DHT22;27435;48.480;9.258;2023-07-31T10:03:08;22.60;68.90
41756;DHT22;27435;48.480;9.258;2023-07-31T10:05:36;22.50;68.80
41756;DHT22;27435;48.480;9.258;2023-07-31T10:08:04;22.60;68.90
41756;DHT22;27435;48.480;9.258;2023-07-31T10:10:31;22.70;68.50
41756;DHT22;27435;48.480;9.258;2023-07-31T10:12:57;22.80;68.50
41756;DHT22;27435;48.480;9.258;2023-07-31T10:15:23;22.40;69.70
41756;DHT22;27435;48.480;9.258;2023-07-31T10:17:50;22.60;69.10
41756;DHT22;27435;48.480;9.258;2023-07-31T10:20:17;22.60;68.30
41756;DHT22;27435;48.480;9.258;2023-07-31T10:22:46;22.40;69.00
41756;DHT22;27435;48.480;9.258;2023-07-31T10:25:13;22.40;69.80
41756;DHT22;27435;48.480;9.258;2023-07-31T10:27:39;22.30;69.90
41756;DHT22;27435;48.480;9.258;2023-07-31T10:30:16;22.30;69.60
41756;DHT22;27435;48.480;9.258;2023-07-31T10:32:43;22.30;69.90
41756;DHT22;27435;48.480;9.258;2023-07-31T10:35:09;22.20;70.00
41756;DHT22;27435;48.480;9.258;2023-07-31T10:37:39;22.10;70.30
41756;DHT22;27435;48.480;9.258;2023-07-31T10:40:06;22.20;69.80
41756;DHT22;27435;48.480;9.258;2023-07-31T10:42:37;22.40;69.20
41756;DHT22;27435;48.480;9.258;2023-07-31T10:45:08;22.40;70.20
41756;DHT22;27435;48.480;9.258;2023-07-31T10:47:43;22.50;69.90
41756;DHT22;27435;48.480;9.258;2023-07-31T10:52:47;23.00;68.20
41756;DHT22;27435;48.480;9.258;2023-07-31T10:57:55;23.10;68.80
41756;DHT22;27435;48.480;9.258;2023-07-31T11:00:28;23.10;68.50
41756;DHT22;27435;48.480;9.258;2023-07-31T11:03:04;23.30;67.90
41756;DHT22;27435;48.480;9.258;2023-07-31T11:06:02;23.50;67.30
41756;DHT22;27435;48.480;9.258;2023-07-31T11:08:31;23.50;67.50
41756;DHT22;27435;48.480;9.258;2023-07-31T11:13:52;23.80;67.50
41756;DHT22;27435;48.480;9.258;2023-07-31T11:16:24;24.10;66.80
41756;DHT22;27435;48.480;9.258;2023-07-31T11:18:51;24.30;66.30
41756;DHT22;27435;48.480;9.258;2023-07-31T11:21:23;24.10;66.50
41756;DHT22;27435;48.480;9.258;2023-07-31T11:23:51;23.90;65.50
41756;DHT22;27435;48.480;9.258;2023-07-31T11:26:18;24.10;65.50
41756;DHT22;27435;48.480;9.258;2023-07-31T11:28:47;24.20;65.30
41756;DHT22;27435;48.480;9.258;2023-07-31T11:31:13;24.10;64.80
41756;DHT22;27435;48.480;9.258;2023-07-31T11:33:38;24.00;65.20
41756;DHT22;27435;48.480;9.258;2023-07-31T11:36:04;24.20;64.90
41756;DHT22;27435;48.480;9.258;2023-07-31T11:38:32;24.30;65.60
41756;DHT22;27435;48.480;9.258;2023-07-31T11:41:02;25.10;63.40
41756;DHT22;27435;48.480;9.258;2023-07-31T11:43:28;25.70;62.30
41756;DHT22;27435;48.480;9.258;2023-07-31T11:45:56;26.00;61.20
41756;DHT22;27435;48.480;9.258;2023-07-31T11:48:25;26.00;59.90
41756;DHT22;27435;48.480;9.258;2023-07-31T11:50:53;26.00;59.60
41756;DHT22;27435;48.480;9.258;2023-07-31T11:53:26;26.30;60.00
41756;DHT22;27435;48.480;9.258;2023-07-31T11:55:54;26.40;60.20
41756;DHT22;27435;48.480;9.258;2023-07-31T11:58:20;26.60;59.20
41756;DHT22;27435;48.480;9.258;2023-07-31T12:00:46;26.50;59.00
41756;DHT22;27435;48.480;9.258;2023-07-31T12:03:12;25.50;60.80
41756;DHT22;27435;48.480;9.258;2023-07-31T12:05:38;25.10;61.80
41756;DHT22;27435;48.480;9.258;2023-07-31T12:08:09;25.60;61.30
41756;DHT22;27435;48.480;9.258;2023-07-31T12:10:36;25.60;61.50
41756;DHT22;27435;48.480;9.258;2023-07-31T12:13:12;25.60;62.10
41756;DHT22;27435;48.480;9.258;2023-07-31T12:15:45;25.00;62.10
41756;DHT22;27435;48.480;9.258;2023-07-31T12:18:13;25.00;63.10
41756;DHT22;27435;48.480;9.258;2023-07-31T12:20:58;24.90;63.50
41756;DHT22;27435;48.480;9.258;2023-07-31T12:23:28;24.60;66.10
41756;DHT22;27435;48.480;9.258;2023-07-31T12:26:03;24.40;66.00
41756;DHT22;27435;48.480;9.258;2023-07-31T12:28:29;23.90;67.30
41756;DHT22;27435;48.480;9.258;2023-07-31T12:31:00;23.40;68.50
41756;DHT22;27435;48.480;9.258;2023-07-31T12:33:31;23.40;68.50
41756;DHT22;27435;48.480;9.258;2023-07-31T12:35:58;23.20;68.90
41756;DHT22;27435;48.480;9.258;2023-07-31T12:38:23;23.30;68.20
41756;DHT22;27435;48.480;9.258;2023-07-31T12:40:49;23.40;67.80
41756;DHT22;27435;48.480;9.258;2023-07-31T12:43:16;23.70;68.00
41756;DHT22;27435;48.480;9.258;2023-07-31T12:45:41;24.20;67.10
41756;DHT22;27435;48.480;9.258;2023-07-31T12:48:07;24.60;65.30
41756;DHT22;27435;48.480;9.258;2023-07-31T12:50:32;24.60;64.90
41756;DHT22;27435;48.480;9.258;2023-07-31T12:52:58;24.30;65.40
41756;DHT22;27435;48.480;9.258;2023-07-31T12:55:24;24.30;65.90
41756;DHT22;27435;48.480;9.258;2023-07-31T12:57:50;24.50;65.30
41756;DHT22;27435;48.480;9.258;2023-07-31T13:00:16;24.70;64.30
41756;DHT22;27435;48.480;9.258;2023-07-31T13:02:42;24.70;64.90
41756;DHT22;27435;48.480;9.258;2023-07-31T13:05:08;25.20;64.30
41756;DHT22;27435;48.480;9.258;2023-07-31T13:07:34;25.80;63.20
41756;DHT22;27435;48.480;9.258;2023-07-31T13:09:59;26.20;61.90
41756;DHT22;27435;48.480;9.258;2023-07-31T13:12:25;26.40;60.80
41756;DHT22;27435;48.480;9.258;2023-07-31T13:14:51;26.30;61.30
41756;DHT22;27435;48.480;9.258;2023-07-31T13:17:17;26.30;61.60
41756;DHT22;27435;48.480;9.258;2023-07-31T13:19:43;25.70;62.70
41756;DHT22;27435;48.480;9.258;2023-07-31T13:22:08;26.00;63.10
41756;DHT22;27435;48.480;9.258;2023-07-31T13:24:34;26.70;60.70
41756;DHT22;27435;48.480;9.258;2023-07-31T13:27:00;27.70;58.50
41756;DHT22;27435;48.480;9.258;2023-07-31T13:29:25;28.10;58.40
41756;DHT22;27435;48.480;9.258;2023-07-31T13:31:52;27.60;58.60
41756;DHT22;27435;48.480;9.258;2023-07-31T13:34:18;27.60;58.70
41756;DHT22;27435;48.480;9.258;2023-07-31T13:36:43;28.00;58.40
41756;DHT22;27435;48.480;9.258;2023-07-31T13:39:09;28.80;56.00
41756;DHT22;27435;48.480;9.258;2023-07-31T13:41:35;28.80;55.90
41756;DHT22;27435;48.480;9.258;2023-07-31T13:44:00;28.30;56.20
41756;DHT22;27435;48.480;9.258;2023-07-31T13:46:26;27.30;59.10
41756;DHT22;27435;48.480;9.258;2023-07-31T13:48:52;27.30;59.20
41756;DHT22;27435;48.480;9.258;2023-07-31T13:51:21;26.60;61.00
41756;DHT22;27435;48.480;9.258;2023-07-31T13:53:47;26.10;62.10
41756;DHT22;27435;48.480;9.258;2023-07-31T13:56:13;26.00;62.70
41756;DHT22;27435;48.480;9.258;2023-07-31T13:58:38;25.70;62.60
41756;DHT22;27435;48.480;9.258;2023-07-31T14:01:04;25.10;62.90
41756;DHT22;27435;48.480;9.258;2023-07-31T14:03:31;24.40;64.30
41756;DHT22;27435;48.480;9.258;2023-07-31T14:05:56;23.80;65.20
41756;DHT22;27435;48.480;9.258;2023-07-31T14:08:22;23.40;66.50
41756;DHT22;27435;48.480;9.258;2023-07-31T14:10:48;23.60;66.90
41756;DHT22;27435;48.480;9.258;2023-07-31T14:13:14;23.50;66.20
41756;DHT22;27435;48.480;9.258;2023-07-31T14:15:42;23.20;67.60
41756;DHT22;27435;48.480;9.258;2023-07-31T14:18:08;23.20;67.00
41756;DHT22;27435;48.480;9.258;2023-07-31T14:20:34;23.20;66.80
41756;DHT22;27435;48.480;9.258;2023-07-31T14:23:00;23.10;66.80
41756;DHT22;27435;48.480;9.258;2023-07-31T14:25:26;22.90;68.00
41756;DHT22;27435;48.480;9.258;2023-07-31T14:27:52;22.80;68.20
41756;DHT22;27435;48.480;9.258;2023-07-31T14:30:17;22.60;68.30
41756;DHT22;27435;48.480;9.258;2023-07-31T14:32:44;22.80;68.10
41756;DHT22;27435;48.480;9.258;2023-07-31T14:35:09;22.70;68.20
41756;DHT22;27435;48.480;9.258;2023-07-31T14:37:45;22.50;67.90
41756;DHT22;27435;48.480;9.258;2023-07-31T14:40:12;22.40;68.10
41756;DHT22;27435;48.480;9.258;2023-07-31T14:42:39;22.50;67.90
41756;DHT22;27435;48.480;9.258;2023-07-31T14:45:06;22.70;67.70
41756;DHT22;27435;48.480;9.258;2023-07-31T14:47:32;22.90;67.40
41756;DHT22;27435;48.480;9.258;2023-07-31T14:49:59;23.10;66.90
41756;DHT22;27435;48.480;9.258;2023-07-31T14:52:25;23.10;66.50
41756;DHT22;27435;48.480;9.258;2023-07-31T14:54:51;23.20;66.20
41756;DHT22;27435;48.480;9.258;2023-07-31T14:57:16;23.20;66.50
41756;DHT22;27435;48.480;9.258;2023-07-31T14:59:42;23.00;66.90
41756;DHT22;27435;48.480;9.258;2023-07-31T15:02:11;22.70;67.80
41756;DHT22;27435;48.480;9.258;2023-07-31T15:04:37;22.60;68.40
41756;DHT22;27435;48.480;9.258;2023-07-31T15:07:03;22.60;67.80
41756;DHT22;27435;48.480;9.258;2023-07-31T15:09:28;22.70;68.10
41756;DHT22;27435;48.480;9.258;2023-07-31T15:11:56;22.70;68.10
41756;DHT22;27435;48.480;9.258;2023-07-31T15:14:22;22.80;68.10
41756;DHT22;27435;48.480;9.258;2023-07-31T15:16:48;22.70;68.10
41756;DHT22;27435;48.480;9.258;2023-07-31T15:19:15;22.80;68.50
41756;DHT22;27435;48.480;9.258;2023-07-31T15:21:40;22.70;68.50
41756;DHT22;27435;48.480;9.258;2023-07-31T15:24:06;22.80;68.40
41756;DHT22;27435;48.480;9.258;2023-07-31T15:26:31;22.90;68.60
41756;DHT22;27435;48.480;9.258;2023-07-31T15:29:02;22.90;68.70
41756;DHT22;27435;48.480;9.258;2023-07-31T15:31:31;22.90;68.40
41756;DHT22;27435;48.480;9.258;2023-07-31T15:33:56;22.90;68.80
41756;DHT22;27435;48.480;9.258;2023-07-31T15:36:22;22.90;69.00
41756;DHT22;27435;48.480;9.258;2023-07-31T15:38:48;22.80;69.50
41756;DHT22;27435;48.480;9.258;2023-07-31T15:41:17;22.90;68.70
41756;DHT22;27435;48.480;9.258;2023-07-31T15:43:42;22.50;69.30
41756;DHT22;27435;48.480;9.258;2023-07-31T15:46:08;22.80;69.60
41756;DHT22;27435;48.480;9.258;2023-07-31T15:48:34;23.00;69.40